Middletown, CT (06457)

03:56:EST den 06. mars 2015 (GMT -0500)
Middletown Framing | Change Station
CLOSE
Current Station
Personlig værstasjon
Location: Middletown, CT
Høyde over havet: 56 ft
Nearby Weather Stations

H.o.h 56 ft 41.56 °N, 72.65 °W | Updated 5 minutes ago

Klart
Klart
13.8 °F
Feels Like 7 °F
N
4.0
Vind Variabel Vind from Nord
Gusts 8.0 mph

I dag
High -- | Low -- °F
--% Chance of Precip.
I går
High -- | Low -- °F
Precip. -- tommer
6:17 AM 5:46 PM
Fullmåne, 100% visible
Lufttrykk 30.43 tommer
Sikt 10.0 eng. mil
Skyet Klart
Nedkjølingseffekt 7 °F
Duggpunkt -9 °F
Fuktighet 34%
Regn tommer
Snødybde Not available.
UV 0 av 12
Pollen .50 av 12
Luftkvalitet Not available.
Flu Activity Not available.
METAR KMMK 060753Z AUTO 35006KT 10SM CLR M11/M20 A3042 RMK AO2 SLP302 T11061200 TSNO

More Conditions Fewer Conditions

Lufttrykk 30.43 tommer
Sikt 10.0 eng. mil
Skyet Klart
Nedkjølingseffekt 7 °F
Duggpunkt -9 °F
Fuktighet 34%
Regn tommer
Snødybde Not available.
UV 0 av 12
Pollen .50 av 12
Luftkvalitet Not available.
Flu Activity Not available.
METAR KMMK 060753Z AUTO 35006KT 10SM CLR M11/M20 A3042 RMK AO2 SLP302 T11061200 TSNO

More Conditions Fewer Conditions

10-Day Weather Forecast

Almanac

Astronomi

Mar. 06, 2015 Oppgang Nedgang
Virkelig tid
Tussmørke
Nautisk skumring
Astronomisk skumring
Månen
Lengde av synlig lys
Dagens lengde
Tomorrow will be .
, % of the Moon is Illuminated

Dagens maks og min

State Highs State Lows

Community

WunderPhotos

Upload Photos

1,803,211 photos uploaded!

WunderBlogs® & News

Nearby

Luftkvalitet

  Luftkvalitet AQ Indeks Forurensing
Not available.

Snødybde

Stasjon Depth Høyde over havet

Earthquake Activity

By Distance Mag. Time & Date
Minimum magnitude displayed is 2.5.

Coastal Water Temperatures

Sted Temperatur

Nearby Weather Stations